Time;durP1;ratioP1;P1;durP2;ratioP2;P2;SDS_P1;SDS_P2;PMS_P1;PMS_P2;Temp;Humidity;BMP_temperature;BMP_pressure;BME280_temperature;BME280_humidity;BME280_pressure;Samples;Min_cycle;Max_cycle;Signal;HPM_P1;HPM_P2
2023/08/25 00:01:11;;;;;;;;;13.00;12.00;;;;;24.56;69.37;100190.19;6212786;22;45217;-84
2023/08/25 00:03:36;;;;;;;;;11.50;11.50;;;;;25.01;68.68;100229.16;6212985;22;45578;-84
2023/08/25 00:06:02;;;;;;;;;13.25;13.25;;;;;24.93;68.36;100202.00;6212380;22;50735;-85
2023/08/25 00:08:27;;;;;;;;;11.25;10.75;;;;;24.92;68.53;100205.75;6211941;22;45736;-84
2023/08/25 00:10:53;;;;;;;;;12.50;11.50;;;;;25.07;68.64;100219.38;6214216;22;45197;-84
2023/08/25 00:13:20;;;;;;;;;15.00;12.75;;;;;25.04;68.44;100204.28;6187721;22;45235;-85
2023/08/25 00:15:45;;;;;;;;;14.25;14.25;;;;;25.12;68.20;100208.75;6215007;22;45439;-84
2023/08/25 00:18:10;;;;;;;;;13.75;11.75;;;;;24.93;68.99;100213.72;6213143;22;55753;-83
2023/08/25 00:20:39;;;;;;;;;13.00;11.75;;;;;24.83;69.52;100199.56;6213830;22;45263;-85
2023/08/25 00:23:04;;;;;;;;;11.75;10.50;;;;;24.64;69.42;100181.09;6213936;22;45527;-84
2023/08/25 00:25:32;;;;;;;;;12.25;11.25;;;;;24.77;70.06;100202.22;6214329;22;45550;-84
2023/08/25 00:27:57;;;;;;;;;13.25;11.75;;;;;24.73;69.68;100195.44;6213897;22;47084;-84
2023/08/25 00:30:23;;;;;;;;;10.50;10.50;;;;;24.62;70.04;100172.28;6214206;22;45221;-84
2023/08/25 00:32:48;;;;;;;;;11.00;11.00;;;;;24.73;70.04;100190.00;6187203;22;57230;-85
2023/08/25 00:35:13;;;;;;;;;9.25;8.75;;;;;24.64;69.91;100175.66;6213644;22;55912;-85
2023/08/25 00:37:39;;;;;;;;;12.75;10.25;;;;;24.68;70.29;100182.41;6214023;22;59035;-84
2023/08/25 00:40:04;;;;;;;;;13.75;11.25;;;;;24.55;70.30;100155.88;6215422;22;45167;-85
2023/08/25 00:42:30;;;;;;;;;11.00;10.00;;;;;24.69;70.24;100179.50;6215500;22;45192;-85
2023/08/25 00:44:55;;;;;;;;;12.75;11.25;;;;;24.47;70.12;100139.63;6217243;22;45244;-84
2023/08/25 00:47:21;;;;;;;;;11.25;9.50;;;;;24.67;70.45;100164.41;6188045;22;46201;-85
2023/08/25 00:49:48;;;;;;;;;13.75;13.75;;;;;24.38;70.32;100132.63;6193582;22;45425;-83
2023/08/25 00:52:15;;;;;;;;;15.75;15.75;;;;;24.67;70.58;100176.13;6189073;22;45328;-85
2023/08/25 00:54:40;;;;;;;;;12.75;12.00;;;;;24.54;70.53;100154.19;6214492;22;45406;-85
2023/08/25 00:57:06;;;;;;;;;10.50;10.50;;;;;24.66;70.62;100173.59;6213934;22;45252;-85
2023/08/25 00:59:33;;;;;;;;;12.25;11.25;;;;;24.52;70.70;100156.25;6214243;22;45826;-85
2023/08/25 01:01:58;;;;;;;;;15.75;14.00;;;;;24.53;70.68;100155.22;6213435;22;45303;-84
2023/08/25 01:04:23;;;;;;;;;12.25;10.25;;;;;24.44;71.12;100150.88;6214239;22;45295;-85
2023/08/25 01:06:49;;;;;;;;;16.00;13.25;;;;;24.59;71.07;100183.50;6213668;22;55247;-83
2023/08/25 01:09:15;;;;;;;;;15.00;13.50;;;;;24.57;70.94;100180.16;6213909;22;46579;-84
2023/08/25 01:11:51;;;;;;;;;14.25;11.25;;;;;24.42;71.18;100161.09;6213929;22;45340;-84
2023/08/25 01:14:46;;;;;;;;;13.25;13.25;;;;;24.60;70.90;100190.63;6214248;22;45294;-84
2023/08/25 01:17:23;;;;;;;;;11.50;11.50;;;;;24.60;70.49;100179.75;6213420;22;45694;-84
2023/08/25 01:20:00;;;;;;;;;15.75;13.25;;;;;24.53;71.54;100174.25;6186128;22;46077;-84
2023/08/25 01:22:48;;;;;;;;;12.25;12.25;;;;;24.59;71.09;100183.50;6212990;22;45249;-83
2023/08/25 01:25:30;;;;;;;;;16.00;14.50;;;;;24.52;71.01;100183.44;6186739;22;45147;-85
2023/08/25 01:27:58;;;;;;;;;13.00;11.25;;;;;24.59;71.22;100187.06;6213321;22;45311;-84
2023/08/25 01:30:30;;;;;;;;;13.00;13.00;;;;;24.55;71.43;100176.78;6213630;22;45735;-85
2023/08/25 01:32:55;;;;;;;;;11.75;11.75;;;;;24.59;71.28;100191.69;6213580;22;45303;-82
2023/08/25 01:35:52;;;;;;;;;16.00;14.50;;;;;24.53;71.20;100179.69;6186544;22;45281;-84
2023/08/25 01:38:25;;;;;;;;;10.00;9.75;;;;;24.43;71.27;100151.91;6213501;22;46365;-84
2023/08/25 01:41:07;;;;;;;;;12.25;12.25;;;;;24.37;72.09;100139.09;6213905;22;45281;-84
2023/08/25 01:43:36;;;;;;;;;12.00;11.00;;;;;24.48;71.99;100165.81;6214257;22;45372;-85
2023/08/25 01:46:02;;;;;;;;;14.25;14.25;;;;;24.44;71.91;100175.34;6213477;22;45377;-84
2023/08/25 01:48:30;;;;;;;;;15.00;13.75;;;;;24.48;71.93;100186.69;6213069;22;45208;-84
2023/08/25 01:50:56;;;;;;;;;13.75;13.00;;;;;24.49;71.74;100167.50;6213293;22;45356;-84
2023/08/25 01:53:21;;;;;;;;;13.75;12.00;;;;;24.48;72.04;100167.66;6213853;22;45372;-83
2023/08/25 01:55:47;;;;;;;;;11.75;11.50;;;;;24.48;71.60;100168.53;6214006;22;45566;-84
2023/08/25 01:58:14;;;;;;;;;13.00;10.75;;;;;24.42;71.54;100166.53;6212669;22;65333;-85
2023/08/25 02:00:40;;;;;;;;;9.75;9.75;;;;;24.39;71.71;100156.06;6213976;22;45426;-85
2023/08/25 02:03:05;;;;;;;;;8.75;8.75;;;;;24.26;71.71;100140.34;6214004;22;45317;-85
2023/08/25 02:05:30;;;;;;;;;11.50;9.25;;;;;24.46;71.49;100164.28;6213712;22;49401;-85
2023/08/25 02:07:56;;;;;;;;;13.50;12.00;;;;;24.47;71.44;100165.97;6212648;22;65818;-84
2023/08/25 02:10:21;;;;;;;;;11.00;10.75;;;;;24.46;71.54;100150.69;6213990;22;49068;-84
2023/08/25 02:12:46;;;;;;;;;11.75;8.00;;;;;24.29;71.77;100128.25;6186316;22;55413;-83
2023/08/25 02:15:12;;;;;;;;;12.50;11.00;;;;;24.42;72.08;100151.09;6213817;22;45256;-85
2023/08/25 02:17:40;;;;;;;;;12.00;12.00;;;;;24.38;72.88;100155.22;6213884;22;46409;-84
2023/08/25 02:20:07;;;;;;;;;9.75;9.75;;;;;24.38;72.48;100160.66;6186475;22;45206;-85
2023/08/25 02:22:32;;;;;;;;;10.75;10.75;;;;;24.35;73.26;100150.16;6213379;22;45282;-85
2023/08/25 02:24:58;;;;;;;;;11.75;9.50;;;;;24.29;73.26;100150.00;6214463;22;45353;-85
2023/08/25 02:27:23;;;;;;;;;3.50;3.50;;;;;24.29;72.87;100144.56;6214307;22;45256;-84
2023/08/25 02:29:48;;;;;;;;;12.00;12.00;;;;;24.07;73.08;100103.69;6186629;22;45285;-84
2023/08/25 02:32:14;;;;;;;;;17.25;15.50;;;;;24.06;73.94;100096.56;6214147;22;45410;-84
2023/08/25 02:34:39;;;;;;;;;13.67;13.67;;;;;24.23;74.33;100120.88;6215718;22;45319;-85
2023/08/25 02:37:04;;;;;;;;;14.50;14.00;;;;;24.23;73.92;100115.44;6219174;22;45430;-84
2023/08/25 02:39:30;;;;;;;;;17.25;16.00;;;;;24.10;73.87;100092.47;6197009;22;45348;-84
2023/08/25 02:41:55;;;;;;;;;18.67;17.00;;;;;24.11;74.81;100094.16;6225994;22;45334;-83
2023/08/25 02:44:21;;;;;;;;;20.33;18.67;;;;;23.91;75.39;100068.53;6227552;22;59730;-84
2023/08/25 02:46:46;;;;;;;;;20.00;18.67;;;;;23.87;76.21;100055.53;6195345;22;46288;-85
2023/08/25 02:49:11;;;;;;;;;19.00;19.00;;;;;23.95;76.18;100078.00;6203073;22;45251;-84
2023/08/25 02:51:37;;;;;;;;;24.00;20.50;;;;;23.91;76.17;100087.53;6229240;22;45280;-84
2023/08/25 02:54:02;;;;;;;;;19.00;16.00;;;;;23.68;76.75;100059.59;6232631;22;44769;-84
2023/08/25 02:56:28;;;;;;;;;20.75;18.50;;;;;23.80;77.00;100093.41;6233042;22;45170;-84
2023/08/25 02:58:54;;;;;;;;;19.33;19.33;;;;;23.78;76.54;100092.75;6219551;22;45290;-84
2023/08/25 03:01:19;;;;;;;;;18.00;18.00;;;;;23.43;76.85;100043.47;6219541;22;45229;-85
2023/08/25 03:03:44;;;;;;;;;14.25;14.25;;;;;23.70;76.59;100077.41;6215727;22;45157;-84
2023/08/25 03:06:10;;;;;;;;;18.75;16.75;;;;;23.78;76.60;100098.19;6213534;22;49940;-85
2023/08/25 03:08:35;;;;;;;;;19.67;18.00;;;;;23.75;76.79;100099.41;6212960;22;45268;-85
2023/08/25 03:11:02;;;;;;;;;16.00;15.25;;;;;23.59;77.71;100071.56;6213436;22;45494;-84
2023/08/25 03:13:27;;;;;;;;;26.00;20.50;;;;;23.71;77.45;100113.53;6213870;22;45282;-84
2023/08/25 03:15:54;;;;;;;;;21.33;20.00;;;;;23.73;76.72;100117.75;6212451;22;63820;-84
2023/08/25 03:18:19;;;;;;;;;18.67;18.67;;;;;23.86;76.37;100132.59;6213187;22;45311;-84
2023/08/25 03:20:49;;;;;;;;;15.25;15.25;;;;;23.73;76.06;100111.47;6213648;22;45349;-85
2023/08/25 03:23:15;;;;;;;;;21.67;21.67;;;;;23.98;76.38;100148.28;6213138;22;45147;-84
2023/08/25 03:25:40;;;;;;;;;28.33;27.00;;;;;24.02;75.98;100163.16;6211986;22;60239;-85
2023/08/25 03:28:05;;;;;;;;;23.00;22.00;;;;;23.92;76.08;100151.69;6212439;22;59868;-85
2023/08/25 03:30:31;;;;;;;;;18.67;18.67;;;;;24.03;76.07;100174.88;6213072;22;45267;-85
2023/08/25 03:32:56;;;;;;;;;17.00;17.00;;;;;23.76;76.10;100132.84;6212768;22;52951;-85
2023/08/25 03:35:21;;;;;;;;;24.75;21.00;;;;;23.99;75.95;100173.56;6212920;22;46305;-85
2023/08/25 03:37:46;;;;;;;;;22.75;20.50;;;;;23.92;75.97;100164.44;6212463;22;45406;-84
2023/08/25 03:40:12;;;;;;;;;24.33;23.00;;;;;23.93;75.75;100172.41;6212820;22;45279;-84
2023/08/25 03:42:37;;;;;;;;;28.00;26.33;;;;;24.10;76.05;100164.97;6213094;22;45231;-85
2023/08/25 03:45:05;;;;;;;;;26.00;26.00;;;;;24.04;77.05;100155.66;6184850;22;46125;-85
2023/08/25 03:47:30;;;;;;;;;23.33;21.67;;;;;24.04;77.21;100174.69;6213105;22;45380;-84
2023/08/25 03:49:55;;;;;;;;;26.33;25.00;;;;;24.02;77.10;100171.31;6212450;22;52056;-85
2023/08/25 03:52:22;;;;;;;;;26.67;25.67;;;;;23.98;77.27;100166.44;6185748;22;45305;-84
2023/08/25 03:54:47;;;;;;;;;20.00;20.00;;;;;23.85;77.26;100153.47;6212393;22;46942;-85
2023/08/25 03:57:12;;;;;;;;;24.33;23.33;;;;;23.97;77.24;100165.59;6212484;22;45185;-84
2023/08/25 03:59:41;;;;;;;;;30.33;28.67;;;;;23.88;77.22;100142.25;6185809;22;45401;-84
2023/08/25 04:02:06;;;;;;;;;29.33;27.33;;;;;23.96;77.53;100144.91;6213002;22;45249;-85
2023/08/25 04:04:32;;;;;;;;;29.67;28.00;;;;;23.94;77.52;100163.22;6212418;22;61982;-84
2023/08/25 04:06:57;;;;;;;;;27.67;26.33;;;;;23.91;77.75;100147.28;6212923;22;45291;-84
2023/08/25 04:09:23;;;;;;;;;28.00;27.00;;;;;23.94;77.43;100144.22;6212618;22;45326;-84
2023/08/25 04:11:48;;;;;;;;;27.00;26.00;;;;;23.87;77.51;100118.81;6213083;22;45244;-84
2023/08/25 04:14:13;;;;;;;;;27.00;25.33;;;;;23.95;77.12;100124.16;6212673;22;45915;-84
2023/08/25 04:16:39;;;;;;;;;34.00;29.00;;;;;23.98;77.83;100140.13;6212854;22;45351;-85
2023/08/25 04:19:04;;;;;;;;;36.00;31.67;;;;;23.86;77.76;100113.59;6212882;22;51578;-86
2023/08/25 04:21:29;;;;;;;;;28.33;26.33;;;;;23.92;77.49;100132.69;6213181;22;45511;-85
2023/08/25 04:23:55;;;;;;;;;32.67;31.67;;;;;23.97;77.35;100124.84;6185509;22;47544;-85
2023/08/25 04:26:20;;;;;;;;;29.00;29.00;;;;;24.01;77.11;100119.88;6185750;22;45479;-85
2023/08/25 04:28:45;;;;;;;;;36.00;27.67;;;;;23.95;77.13;100116.00;6212669;22;45193;-84
2023/08/25 04:31:11;;;;;;;;;36.33;32.00;;;;;23.83;78.25;100106.66;6212566;22;45245;-85
2023/08/25 04:33:36;;;;;;;;;34.67;31.67;;;;;23.90;78.24;100110.31;6210157;22;51431;-83
2023/08/25 04:36:03;;;;;;;;;32.33;31.00;;;;;23.70;77.90;100082.84;6212963;22;45207;-84
2023/08/25 04:38:28;;;;;;;;;37.67;34.00;;;;;23.81;78.00;100084.25;6213053;22;45186;-84
2023/08/25 04:40:53;;;;;;;;;32.00;31.00;;;;;23.90;77.73;100093.16;6212780;22;45584;-84
2023/08/25 04:43:19;;;;;;;;;37.33;32.67;;;;;23.93;77.99;100112.66;6212346;22;45783;-82
2023/08/25 04:45:44;;;;;;;;;36.67;34.33;;;;;23.98;77.45;100107.53;6185663;22;45243;-84
2023/08/25 04:48:10;;;;;;;;;43.67;33.67;;;;;23.91;77.12;100098.41;6214063;22;45217;-84
2023/08/25 04:50:35;;;;;;;;;44.33;38.00;;;;;23.85;77.32;100093.72;6216345;22;45214;-84
2023/08/25 04:53:00;;;;;;;;;40.33;36.00;;;;;23.86;77.32;100086.44;6212321;22;57004;-84
2023/08/25 04:55:25;;;;;;;;;40.00;34.00;;;;;23.94;77.65;100108.91;6212963;22;51037;-84
2023/08/25 04:57:51;;;;;;;;;22.00;22.00;;;;;23.86;77.54;100097.28;6214229;22;45275;-85
2023/08/25 05:00:16;;;;;;;;;45.33;37.33;;;;;23.89;78.39;100113.22;6214461;22;45163;-85
2023/08/25 05:02:42;;;;;;;;;46.67;38.33;;;;;23.86;78.27;100113.59;6186170;22;48095;-85
2023/08/25 05:05:11;;;;;;;;;39.33;35.33;;;;;23.82;78.40;100099.50;6213658;22;45200;-83
2023/08/25 05:07:36;;;;;;;;;41.33;35.67;;;;;23.86;78.47;100111.72;6218668;22;45280;-84
2023/08/25 05:10:02;;;;;;;;;47.00;39.00;;;;;23.91;78.03;100103.00;6244453;22;45359;-85
2023/08/25 05:12:27;;;;;;;;;41.00;36.00;;;;;23.69;78.42;100083.00;6243803;22;45380;-84
2023/08/25 05:14:52;;;;;;;;;42.67;36.00;;;;;23.68;79.04;100092.16;6244046;22;45141;-85
2023/08/25 05:17:18;;;;;;;;;49.00;36.67;;;;;23.78;78.44;100099.03;6244214;22;45307;-85
2023/08/25 05:19:43;;;;;;;;;49.00;38.00;;;;;23.79;79.01;100089.00;6217045;22;45303;-85
2023/08/25 05:22:08;;;;;;;;;47.67;38.33;;;;;23.66;78.15;100072.50;6244032;22;45729;-85
2023/08/25 05:24:34;;;;;;;;;44.67;37.67;;;;;23.76;77.96;100092.09;6217141;22;62403;-85
2023/08/25 05:26:59;;;;;;;;;50.00;39.33;;;;;23.73;78.03;100089.75;6246318;22;45180;-84
2023/08/25 05:29:27;;;;;;;;;47.00;39.33;;;;;23.84;78.18;100108.34;6245237;22;45469;-84
2023/08/25 05:31:53;;;;;;;;;51.00;42.67;;;;;23.86;77.84;100117.13;6244086;22;45327;-84
2023/08/25 05:34:18;;;;;;;;;51.00;41.33;;;;;23.81;77.73;100119.53;6244000;22;45406;-84
2023/08/25 05:36:44;;;;;;;;;48.67;40.33;;;;;23.83;78.20;100120.22;6216694;22;45426;-84
2023/08/25 05:39:11;;;;;;;;;46.00;40.00;;;;;23.77;78.05;100104.66;6244568;22;45351;-85
2023/08/25 05:41:37;;;;;;;;;48.67;40.67;;;;;23.80;78.15;100123.28;6244285;22;46614;-85
2023/08/25 05:44:03;;;;;;;;;49.00;41.67;;;;;23.46;77.95;100080.28;6244049;22;45241;-85
2023/08/25 05:46:29;;;;;;;;;47.67;41.00;;;;;23.85;77.46;100141.78;6244311;22;45286;-85
2023/08/25 05:48:55;;;;;;;;;45.00;36.67;;;;;23.72;77.42;100132.38;6216171;22;45511;-85
2023/08/25 05:51:20;;;;;;;;;47.33;39.00;;;;;23.74;77.58;100151.19;6244322;22;45346;-85
2023/08/25 05:53:45;;;;;;;;;50.00;41.33;;;;;23.59;78.56;100153.00;6243489;22;45261;-84
2023/08/25 05:56:10;;;;;;;;;48.67;41.67;;;;;23.68;77.70;100174.47;6243861;22;45577;-85
2023/08/25 05:58:36;;;;;;;;;47.67;38.00;;;;;23.54;77.73;100158.91;6245183;22;45256;-85
2023/08/25 06:01:01;;;;;;;;;45.00;38.00;;;;;23.52;77.93;100163.69;6244279;22;45347;-85
2023/08/25 06:03:27;;;;;;;;;51.00;41.00;;;;;23.45;77.91;100147.28;6216535;22;45260;-83
2023/08/25 06:05:53;;;;;;;;;50.67;37.33;;;;;23.48;77.68;100137.94;6243513;22;45402;-84
2023/08/25 06:08:19;;;;;;;;;35.67;34.67;;;;;23.58;77.74;100138.59;6229179;22;45342;-84
2023/08/25 06:10:45;;;;;;;;;47.00;39.67;;;;;23.52;77.41;100114.84;6212419;22;45378;-84
2023/08/25 06:13:10;;;;;;;;;48.67;40.67;;;;;23.39;77.48;100099.16;6214224;22;45403;-88
2023/08/25 06:15:36;;;;;;;;;48.33;39.67;;;;;23.10;77.48;100052.91;6217335;22;45328;-86
2023/08/25 06:18:02;;;;;;;;;45.67;39.00;;;;;23.46;77.65;100121.84;6214584;22;45418;-87
2023/08/25 06:20:29;;;;;;;;;47.00;37.00;;;;;23.41;77.51;100113.38;6213587;22;45896;-87
2023/08/25 06:22:54;;;;;;;;;40.67;34.67;;;;;23.58;77.10;100137.75;6186719;22;45377;-88
2023/08/25 06:25:19;;;;;;;;;47.00;38.67;;;;;23.20;77.34;100088.78;6213621;22;45277;-86
2023/08/25 06:27:45;;;;;;;;;44.00;38.33;;;;;23.09;77.93;100103.59;6214480;22;45566;-86
2023/08/25 06:30:11;;;;;;;;;45.00;38.33;;;;;23.13;78.24;100126.63;6214412;22;45981;-84
2023/08/25 06:32:36;;;;;;;;;45.00;36.33;;;;;23.22;78.63;100151.84;6212133;22;45290;-86
2023/08/25 06:35:01;;;;;;;;;36.33;33.33;;;;;23.14;78.83;100147.28;6185399;22;45875;-86
2023/08/25 06:37:27;;;;;;;;;33.67;32.33;;;;;23.27;78.73;100154.84;6213741;22;45562;-87
2023/08/25 06:39:52;;;;;;;;;39.33;35.00;;;;;23.36;78.43;100161.94;6213245;22;59223;-86
2023/08/25 06:42:17;;;;;;;;;44.00;36.67;;;;;23.38;77.84;100161.75;6194656;22;57139;-90
2023/08/25 06:44:43;;;;;;;;;44.00;36.67;;;;;23.05;78.17;100114.97;6194938;22;45349;-89
2023/08/25 06:47:09;;;;;;;;;37.33;32.00;;;;;23.09;78.79;100135.31;6216157;22;45347;-88
2023/08/25 06:49:35;;;;;;;;;36.33;34.00;;;;;23.05;78.59;100129.41;6216882;22;46410;-90
2023/08/25 06:52:00;;;;;;;;;33.67;31.67;;;;;22.77;78.27;100082.88;6192429;22;45249;-87
2023/08/25 06:54:26;;;;;;;;;41.67;34.67;;;;;23.32;78.98;100151.63;6218287;22;45260;-88
2023/08/25 06:56:52;;;;;;;;;34.67;30.67;;;;;23.21;78.23;100140.16;6191523;22;45451;-87
2023/08/25 06:59:17;;;;;;;;;32.67;28.00;;;;;23.12;78.58;100107.81;6189025;22;48311;-91
2023/08/25 07:01:43;;;;;;;;;35.00;31.00;;;;;22.84;78.28;100055.94;6188587;22;45294;-84
2023/08/25 07:04:09;;;;;;;;;34.67;30.33;;;;;23.21;77.93;100113.00;6210375;22;45431;-85
2023/08/25 07:06:36;;;;;;;;;30.00;29.00;;;;;23.38;78.01;100146.31;6210290;22;45284;-86
2023/08/25 07:09:02;;;;;;;;;31.00;28.33;;;;;23.38;77.89;100149.03;6202267;22;47240;-84
2023/08/25 07:11:27;;;;;;;;;28.00;26.00;;;;;23.31;77.81;100137.22;6211486;22;45428;-85
2023/08/25 07:13:53;;;;;;;;;26.00;25.00;;;;;23.38;77.70;100162.59;6211115;22;46277;-86
2023/08/25 07:16:18;;;;;;;;;31.33;25.33;;;;;23.10;78.27;100137.84;6208866;22;45492;-85
2023/08/25 07:18:43;;;;;;;;;28.67;25.33;;;;;22.80;78.26;100085.25;6210741;22;46124;-85
2023/08/25 07:21:11;;;;;;;;;27.33;25.33;;;;;23.06;78.65;100136.50;6209827;22;45324;-85
2023/08/25 07:23:36;;;;;;;;;29.33;22.33;;;;;23.16;78.09;100139.81;6211579;22;45438;-83
2023/08/25 07:26:02;;;;;;;;;26.33;25.33;;;;;23.31;77.74;100145.34;6210980;22;45331;-85
2023/08/25 07:28:27;;;;;;;;;27.67;27.33;;;;;23.36;76.74;100134.78;6209778;22;48323;-84
2023/08/25 07:30:53;;;;;;;;;26.00;23.33;;;;;23.24;76.05;100123.50;6211017;22;45609;-85
2023/08/25 07:33:18;;;;;;;;;27.00;23.00;;;;;23.50;75.93;100166.59;6211892;22;45638;-85
2023/08/25 07:35:43;;;;;;;;;23.33;20.67;;;;;23.12;75.32;100091.53;6213806;22;45260;-86
2023/08/25 07:38:10;;;;;;;;;21.33;21.33;;;;;23.36;75.29;100126.66;6213520;22;49663;-86
2023/08/25 07:40:36;;;;;;;;;26.67;23.00;;;;;23.59;74.55;100158.44;6212691;22;45307;-85
2023/08/25 07:43:02;;;;;;;;;22.00;19.00;;;;;23.70;74.79;100163.41;6221157;22;45198;-86
2023/08/25 07:45:28;;;;;;;;;24.00;18.33;;;;;23.59;74.17;100147.56;6215921;22;45453;-86
2023/08/25 07:47:55;;;;;;;;;20.33;18.00;;;;;23.62;74.01;100168.91;6226359;22;45418;-85
2023/08/25 07:50:21;;;;;;;;;21.33;21.33;;;;;23.54;74.77;100167.91;6227289;22;45790;-86
2023/08/25 07:52:46;;;;;;;;;23.00;23.00;;;;;23.29;74.32;100128.38;6232931;22;45265;-84
2023/08/25 07:55:12;;;;;;;;;23.33;18.00;;;;;23.46;74.46;100167.97;6229076;22;45291;-84
2023/08/25 07:57:37;;;;;;;;;14.50;14.50;;;;;23.19;74.76;100144.06;6217699;22;54240;-85
2023/08/25 08:00:04;;;;;;;;;17.33;16.33;;;;;23.19;74.56;100154.91;6215971;22;45093;-83
2023/08/25 08:02:30;;;;;;;;;20.00;19.33;;;;;23.44;74.95;100205.31;6215176;22;45671;-84
2023/08/25 08:04:55;;;;;;;;;15.00;15.00;;;;;23.46;74.68;100203.25;6214093;22;45542;-83
2023/08/25 08:07:21;;;;;;;;;19.33;16.67;;;;;23.32;75.11;100193.16;6212950;22;46294;-84
2023/08/25 08:09:46;;;;;;;;;18.67;17.33;;;;;23.37;75.62;100209.75;6187911;22;45374;-85
2023/08/25 08:12:11;;;;;;;;;17.67;15.00;;;;;23.10;75.48;100172.25;6215885;22;45303;-85
2023/08/25 08:14:37;;;;;;;;;16.50;15.50;;;;;23.27;75.39;100187.41;6218153;22;45561;-85
2023/08/25 08:17:03;;;;;;;;;11.67;10.00;;;;;23.11;76.09;100182.91;6217199;22;45562;-87
2023/08/25 08:19:28;;;;;;;;;11.67;11.67;;;;;23.26;76.02;100218.28;6187496;22;45612;-85
2023/08/25 08:21:54;;;;;;;;;15.50;12.25;;;;;23.02;75.99;100194.81;6214274;22;45335;-85
2023/08/25 08:24:21;;;;;;;;;16.75;13.75;;;;;23.21;76.33;100226.13;6214293;22;45605;-84
2023/08/25 08:26:46;;;;;;;;;11.50;11.50;;;;;22.99;77.89;100225.00;6213441;22;45388;-87
2023/08/25 08:29:12;;;;;;;;;8.00;8.00;;;;;22.89;78.22;100232.50;6214168;22;45332;-85
2023/08/25 08:31:37;;;;;;;;;7.00;7.00;;;;;22.77;78.23;100223.84;6216704;22;45492;-86
2023/08/25 08:34:03;;;;;;;;;14.33;11.33;;;;;22.84;78.20;100243.03;6216502;22;45256;-88
2023/08/25 08:36:28;;;;;;;;;9.25;9.25;;;;;22.80;78.32;100245.22;6219879;22;46167;-86
2023/08/25 08:38:54;;;;;;;;;13.67;10.67;;;;;22.59;79.03;100215.09;6217622;22;45316;-83
2023/08/25 08:41:20;;;;;;;;;10.50;10.50;;;;;22.63;78.38;100211.84;6218050;22;45222;-85
2023/08/25 08:43:45;;;;;;;;;8.50;8.50;;;;;22.54;77.21;100225.63;6219629;22;45252;-83
2023/08/25 08:46:15;;;;;;;;;7.50;5.75;;;;;22.27;77.22;100200.59;6215489;22;45297;-88
2023/08/25 08:48:40;;;;;;;;;4.00;3.75;;;;;22.70;77.90;100270.81;6190257;22;45641;-83
2023/08/25 08:51:06;;;;;;;;;5.00;5.00;;;;;22.61;77.37;100261.84;6214886;22;45418;-85
2023/08/25 08:53:32;;;;;;;;;4.75;4.75;;;;;22.73;76.96;100282.16;6215188;22;45420;-88
2023/08/25 08:55:59;;;;;;;;;3.50;3.50;;;;;22.81;75.82;100282.16;6187054;22;46944;-86
2023/08/25 08:58:24;;;;;;;;;4.00;2.50;;;;;22.84;75.35;100279.13;6212651;22;45359;-85
2023/08/25 09:00:52;;;;;;;;;2.00;2.00;;;;;22.66;74.93;100254.06;6213223;22;45700;-85
2023/08/25 09:03:21;;;;;;;;;4.25;1.75;;;;;22.73;74.17;100267.75;6213109;22;45443;-87
2023/08/25 09:05:47;;;;;;;;;2.50;2.50;;;;;22.45;74.44;100215.81;6213650;22;46525;-87
2023/08/25 09:08:14;;;;;;;;;5.00;4.00;;;;;22.83;73.20;100282.00;6215019;22;45397;-86
2023/08/25 09:10:40;;;;;;;;;6.75;3.00;;;;;22.73;72.77;100248.78;6220637;22;45328;-88
2023/08/25 09:13:05;;;;;;;;;2.50;2.50;;;;;23.13;71.92;100283.09;6223426;22;52245;-87
2023/08/25 09:15:32;;;;;;;;;3.75;2.00;;;;;23.27;69.84;100285.09;6221778;22;46216;-88
2023/08/25 09:18:06;;;;;;;;;3.00;1.00;;;;;23.11;69.03;100263.44;6190799;22;45335;-88
2023/08/25 09:20:33;;;;;;;;;2.25;2.25;;;;;22.95;68.67;100259.78;6215964;22;45328;-87
2023/08/25 09:22:59;;;;;;;;;2.75;1.25;;;;;23.17;68.20;100295.28;6216150;22;45457;-85
2023/08/25 09:25:25;;;;;;;;;2.00;2.00;;;;;23.16;68.55;100302.59;6214103;22;45504;-87
2023/08/25 09:28:00;;;;;;;;;3.00;3.00;;;;;23.21;68.50;100308.34;6213071;22;45325;-88
2023/08/25 09:30:42;;;;;;;;;4.00;2.00;;;;;23.30;67.85;100311.00;6185922;22;44783;-85
2023/08/25 09:33:09;;;;;;;;;1.75;1.75;;;;;23.26;67.90;100299.69;6186005;22;45355;-88
2023/08/25 09:35:35;;;;;;;;;2.25;2.25;;;;;23.21;67.32;100297.50;6215110;22;46422;-89
2023/08/25 09:38:01;;;;;;;;;3.00;2.00;;;;;23.21;67.05;100307.50;6214720;22;44722;-88
2023/08/25 09:40:31;;;;;;;;;3.25;1.25;;;;;23.15;67.19;100316.31;6186978;22;45406;-89
2023/08/25 09:43:05;;;;;;;;;4.50;2.00;;;;;23.01;67.80;100331.44;6185378;22;45411;-86
2023/08/25 09:45:33;;;;;;;;;5.00;2.75;;;;;22.93;67.93;100326.06;6212833;22;46476;-85
2023/08/25 09:48:16;;;;;;;;;4.75;3.25;;;;;22.71;67.88;100286.06;6222564;22;45481;-85
2023/08/25 09:50:43;;;;;;;;;5.00;3.00;;;;;22.91;67.75;100322.66;6193230;22;44794;-86
2023/08/25 09:53:12;;;;;;;;;5.25;4.00;;;;;22.94;67.77;100334.00;6218363;22;45328;-86
2023/08/25 09:55:39;;;;;;;;;5.50;4.00;;;;;22.98;67.07;100317.38;6215170;22;46304;-87
2023/08/25 09:58:06;;;;;;;;;4.75;2.50;;;;;23.13;66.97;100329.22;6217057;22;45263;-86
2023/08/25 10:00:34;;;;;;;;;4.25;4.00;;;;;22.90;66.37;100285.69;6221680;22;45502;-87
2023/08/25 10:03:01;;;;;;;;;7.00;4.00;;;;;23.24;65.21;100324.28;6189593;22;45387;-88
2023/08/25 10:05:28;;;;;;;;;3.75;3.75;;;;;22.93;66.32;100299.78;6215021;22;45383;-88
2023/08/25 10:07:54;;;;;;;;;7.00;4.00;;;;;23.07;66.36;100322.63;6223455;22;45664;-85
2023/08/25 10:10:21;;;;;;;;;3.75;3.75;;;;;23.09;65.94;100325.16;6218301;22;45356;-88
2023/08/25 10:12:48;;;;;;;;;4.75;4.50;;;;;23.09;65.56;100327.88;6246738;22;45390;-86
2023/08/25 10:15:16;;;;;;;;;5.50;3.75;;;;;23.01;65.65;100326.03;6246552;22;45355;-88
2023/08/25 10:17:44;;;;;;;;;4.75;3.50;;;;;22.92;65.59;100302.66;6245702;22;45322;-86
2023/08/25 10:20:14;;;;;;;;;4.00;4.00;;;;;22.81;65.98;100271.31;6246583;22;45332;-86
2023/08/25 10:22:45;;;;;;;;;6.75;5.50;;;;;23.19;64.96;100325.81;6216481;22;45288;-84
2023/08/25 10:25:12;;;;;;;;;5.25;4.00;;;;;23.17;65.18;100328.69;6214535;22;46301;-88
2023/08/25 10:27:39;;;;;;;;;3.25;3.25;;;;;22.72;65.48;100253.34;6250256;22;45451;-89
2023/08/25 10:30:06;;;;;;;;;4.00;4.00;;;;;23.20;65.57;100324.81;6249843;22;45470;-87
2023/08/25 10:33:10;;;;;;;;;4.75;3.50;;;;;23.21;64.94;100331.91;6254386;22;45382;-87
2023/08/25 10:35:39;;;;;;;;;5.00;3.00;;;;;23.04;64.34;100306.69;6248398;22;45347;-85
2023/08/25 10:38:18;;;;;;;;;6.25;4.50;;;;;23.07;63.48;100294.66;6220494;22;45839;-87
2023/08/25 10:40:49;;;;;;;;;3.50;3.50;;;;;23.38;62.77;100346.28;6221151;22;45775;-88
2023/08/25 10:43:15;;;;;;;;;6.00;6.00;;;;;23.17;63.12;100322.41;6257805;22;45265;-87
2023/08/25 10:45:42;;;;;;;;;5.00;5.00;;;;;23.25;63.49;100347.66;6230861;22;48163;-90
2023/08/25 10:48:10;;;;;;;;;6.50;4.50;;;;;23.00;63.49;100315.34;6232528;22;45366;-88
2023/08/25 10:50:35;;;;;;;;;5.00;5.00;;;;;23.23;63.64;100354.28;6231934;22;45327;-89
2023/08/25 10:53:00;;;;;;;;;9.00;6.00;;;;;22.88;63.83;100290.47;6247751;22;45407;-86
2023/08/25 10:55:29;;;;;;;;;8.00;6.50;;;;;23.26;64.39;100356.66;6222950;22;46819;-87
2023/08/25 10:58:05;;;;;;;;;5.50;5.50;;;;;23.38;63.86;100354.41;6248032;22;45412;-87
2023/08/25 11:00:36;;;;;;;;;7.00;6.25;;;;;23.45;64.21;100342.69;6247522;22;45435;-88
2023/08/25 11:03:02;;;;;;;;;7.00;7.00;;;;;23.46;63.58;100333.53;6219128;22;45498;-88
2023/08/25 11:05:44;;;;;;;;;8.00;5.75;;;;;23.54;62.96;100341.63;6218998;22;48875;-89
2023/08/25 11:08:24;;;;;;;;;7.00;4.75;;;;;23.64;63.09;100346.03;6249516;22;45373;-88
2023/08/25 11:11:12;;;;;;;;;5.25;4.75;;;;;23.62;63.56;100337.22;6219640;22;45435;-88
2023/08/25 11:13:42;;;;;;;;;7.75;7.50;;;;;23.72;63.35;100352.28;6245954;22;45572;-86